createdAt,value
2023-03-05T00:02:19.112Z,12.70
2023-03-05T00:04:45.914Z,12.70
2023-03-05T00:07:14.243Z,12.60
2023-03-05T00:09:40.951Z,12.60
2023-03-05T00:12:08.088Z,12.60
2023-03-05T00:14:34.754Z,12.50
2023-03-05T00:17:01.514Z,12.50
2023-03-05T00:19:28.210Z,12.50
2023-03-05T00:24:22.047Z,12.50
2023-03-05T00:26:49.728Z,12.40
2023-03-05T00:29:18.929Z,12.40
2023-03-05T00:31:46.228Z,12.40
2023-03-05T00:34:15.377Z,12.40
2023-03-05T00:36:51.668Z,12.40
2023-03-05T00:39:20.162Z,12.40
2023-03-05T00:41:47.679Z,12.40
2023-03-05T00:44:14.524Z,12.40
2023-03-05T00:46:41.350Z,12.40
2023-03-05T00:49:08.086Z,12.40
2023-03-05T00:51:34.769Z,12.40
2023-03-05T01:08:45.837Z,12.40
2023-03-05T01:11:12.608Z,12.40
2023-03-05T01:13:39.589Z,12.30
2023-03-05T01:16:06.634Z,12.30
2023-03-05T01:18:33.771Z,12.30
2023-03-05T01:21:00.633Z,12.30
2023-03-05T01:23:27.464Z,12.30
2023-03-05T01:25:56.957Z,12.20
2023-03-05T01:28:23.859Z,12.20
2023-03-05T01:30:50.628Z,12.20
2023-03-05T01:33:17.832Z,12.20
2023-03-05T01:35:49.426Z,12.30
2023-03-05T01:38:17.020Z,12.30
2023-03-05T01:40:44.512Z,12.30
2023-03-05T01:43:11.679Z,12.30
2023-03-05T01:45:39.860Z,12.30
2023-03-05T01:48:06.633Z,12.30
2023-03-05T01:50:33.798Z,12.20
2023-03-05T01:53:04.526Z,12.20
2023-03-05T01:55:34.174Z,12.30
2023-03-05T01:58:04.677Z,12.30
2023-03-05T02:00:37.527Z,12.30
2023-03-05T02:03:07.826Z,12.20
2023-03-05T02:05:38.158Z,12.30
2023-03-05T02:08:09.543Z,12.30
2023-03-05T02:10:42.280Z,12.30
2023-03-05T02:13:13.290Z,12.30
2023-03-05T02:15:42.301Z,12.20
2023-03-05T02:18:10.248Z,12.20
2023-03-05T02:20:54.007Z,12.20
2023-03-05T02:23:22.583Z,12.20
2023-03-05T02:25:49.431Z,12.20
2023-03-05T02:28:25.303Z,12.10
2023-03-05T02:30:52.113Z,12.10
2023-03-05T02:33:19.950Z,12.10
2023-03-05T02:35:47.085Z,12.10
2023-03-05T02:38:16.263Z,12.00
2023-03-05T02:40:43.606Z,12.00
2023-03-05T02:43:10.961Z,12.10
2023-03-05T02:45:38.497Z,12.10
2023-03-05T02:48:05.706Z,12.00
2023-03-05T02:50:33.080Z,12.00
2023-03-05T02:53:00.866Z,12.10
2023-03-05T02:57:54.705Z,12.00
2023-03-05T03:00:21.697Z,11.90
2023-03-05T03:02:48.512Z,11.90
2023-03-05T03:05:15.413Z,11.90
2023-03-05T03:07:42.174Z,11.90
2023-03-05T03:10:09.835Z,11.80
2023-03-05T03:12:40.720Z,11.80
2023-03-05T03:15:09.455Z,11.80
2023-03-05T03:17:37.267Z,11.80
2023-03-05T03:20:09.497Z,11.80
2023-03-05T03:22:36.668Z,11.80
2023-03-05T03:25:04.122Z,11.80
2023-03-05T03:27:30.780Z,11.90
2023-03-05T03:30:02.483Z,11.90
2023-03-05T03:32:31.338Z,11.90
2023-03-05T03:34:58.310Z,11.80
2023-03-05T03:37:25.113Z,11.90
2023-03-05T03:39:51.821Z,11.80
2023-03-05T03:42:21.089Z,11.80
2023-03-05T03:49:42.231Z,11.70
2023-03-05T03:52:09.102Z,11.70
2023-03-05T03:54:36.024Z,11.70
2023-03-05T03:57:03.736Z,11.70
2023-03-05T03:59:30.604Z,11.60
2023-03-05T04:06:55.227Z,11.40
2023-03-05T04:09:22.049Z,11.30
2023-03-05T04:19:10.270Z,11.30
2023-03-05T04:21:36.975Z,10.90
2023-03-05T04:24:03.961Z,10.90
2023-03-05T04:26:30.669Z,10.80
2023-03-05T04:36:22.536Z,10.80
2023-03-05T04:38:49.202Z,10.60
2023-03-05T04:41:15.856Z,10.50
2023-03-05T04:43:42.582Z,10.50
2023-03-05T04:46:09.357Z,10.50
2023-03-05T04:48:36.091Z,10.50
2023-03-05T04:51:02.851Z,10.40
2023-03-05T04:53:29.563Z,10.40
2023-03-05T04:55:56.679Z,10.30
2023-03-05T04:58:23.810Z,10.30
2023-03-05T05:00:50.464Z,10.30
2023-03-05T05:10:40.210Z,10.20
2023-03-05T05:13:07.089Z,10.20
2023-03-05T05:15:34.894Z,10.20
2023-03-05T05:18:01.837Z,10.10
2023-03-05T05:20:28.645Z,10.10
2023-03-05T05:22:55.334Z,10.10
2023-03-05T05:25:22.066Z,10.10
2023-03-05T05:27:48.741Z,10.10
2023-03-05T05:30:15.740Z,10.10
2023-03-05T05:32:42.485Z,10.10
2023-03-05T05:35:10.493Z,10.10
2023-03-05T05:37:37.267Z,10.10
2023-03-05T05:40:05.638Z,10.10
2023-03-05T05:42:32.299Z,10.00
2023-03-05T05:44:59.677Z,10.00
2023-03-05T05:47:26.527Z,10.00
2023-03-05T05:49:53.297Z,10.00
2023-03-05T05:52:20.104Z,10.10
2023-03-05T05:54:46.786Z,10.10
2023-03-05T05:57:14.152Z,10.10
2023-03-05T05:59:40.935Z,10.20
2023-03-05T06:02:08.255Z,10.10
2023-03-05T06:04:36.175Z,10.10
2023-03-05T06:07:03.626Z,10.20
2023-03-05T06:09:30.512Z,10.20
2023-03-05T06:11:57.186Z,10.10
2023-03-05T06:14:23.898Z,10.10
2023-03-05T06:16:50.599Z,10.10
2023-03-05T06:19:17.443Z,10.10
2023-03-05T06:21:44.283Z,10.10
2023-03-05T06:24:11.240Z,10.10
2023-03-05T06:26:38.246Z,10.10
2023-03-05T06:29:05.143Z,10.10
2023-03-05T06:31:31.960Z,10.00
2023-03-05T06:34:03.874Z,10.00
2023-03-05T06:36:31.272Z,9.90
2023-03-05T06:38:58.800Z,9.80
2023-03-05T06:41:28.307Z,9.80
2023-03-05T06:43:55.584Z,9.70
2023-03-05T06:46:27.409Z,9.70
2023-03-05T06:48:57.171Z,9.70
2023-03-05T06:51:26.901Z,9.70
2023-03-05T06:53:54.708Z,9.70
2023-03-05T06:56:21.918Z,9.70
2023-03-05T06:58:50.819Z,9.70
2023-03-05T07:01:17.980Z,9.70
2023-03-05T07:03:44.898Z,9.70
2023-03-05T08:57:19.090Z,9.70
2023-03-05T08:59:47.883Z,10.20
2023-03-05T09:02:14.535Z,10.20
2023-03-05T09:04:41.448Z,10.30
2023-03-05T09:07:08.712Z,10.40
2023-03-05T09:09:35.506Z,10.40
2023-03-05T09:12:03.011Z,10.50
2023-03-05T09:14:29.974Z,10.50
2023-03-05T09:16:57.577Z,10.50
2023-03-05T09:19:24.841Z,10.60
2023-03-05T09:21:51.676Z,10.60
2023-03-05T09:24:19.557Z,10.60
2023-03-05T09:26:46.336Z,10.70
2023-03-05T09:29:13.116Z,10.80
2023-03-05T09:31:40.214Z,10.90
2023-03-05T09:34:08.239Z,10.90
2023-03-05T09:36:35.410Z,11.00
2023-03-05T09:41:51.745Z,11.10
2023-03-05T09:44:23.729Z,11.20
2023-03-05T09:46:54.961Z,11.30
2023-03-05T09:50:01.345Z,11.30
2023-03-05T09:52:50.284Z,11.30
2023-03-05T09:55:33.825Z,11.30
2023-03-05T09:58:15.828Z,11.40
2023-03-05T10:00:53.281Z,11.40
2023-03-05T10:03:26.873Z,11.40
2023-03-05T10:06:05.619Z,11.40
2023-03-05T10:08:40.415Z,11.40
2023-03-05T10:11:19.039Z,11.50
2023-03-05T10:13:46.304Z,11.50
2023-03-05T10:16:52.522Z,11.50
2023-03-05T10:19:47.964Z,11.50
2023-03-05T10:22:24.964Z,11.50
2023-03-05T10:25:00.560Z,11.50
2023-03-05T10:27:40.550Z,11.50
2023-03-05T10:30:13.076Z,11.50
2023-03-05T10:33:07.101Z,11.50
2023-03-05T10:35:52.314Z,11.50
2023-03-05T10:38:41.712Z,11.50
2023-03-05T10:41:25.142Z,11.60
2023-03-05T10:44:03.698Z,11.60
2023-03-05T10:46:36.924Z,11.60
2023-03-05T10:49:20.068Z,11.60
2023-03-05T10:52:18.690Z,11.70
2023-03-05T10:54:45.548Z,11.70
2023-03-05T11:04:42.867Z,11.70
2023-03-05T11:07:15.660Z,11.80
2023-03-05T11:10:02.000Z,11.80
2023-03-05T11:12:32.689Z,11.90
2023-03-05T11:15:14.582Z,11.90
2023-03-05T11:17:48.215Z,11.90
2023-03-05T11:20:26.944Z,11.90
2023-03-05T11:23:02.958Z,11.90
2023-03-05T11:25:30.365Z,11.90
2023-03-05T11:28:01.691Z,11.90
2023-03-05T11:30:32.926Z,11.90
2023-03-05T11:33:31.936Z,12.00
2023-03-05T11:36:14.853Z,12.00
2023-03-05T11:39:07.579Z,12.00
2023-03-05T11:41:51.312Z,12.00
2023-03-05T11:44:27.052Z,12.10
2023-03-05T11:47:18.383Z,12.10
2023-03-05T11:49:48.677Z,12.10
2023-03-05T11:52:32.184Z,12.20
2023-03-05T11:55:14.577Z,12.20
2023-03-05T11:58:00.367Z,12.30
2023-03-05T12:00:32.138Z,12.30
2023-03-05T12:03:02.514Z,12.30
2023-03-05T12:05:30.033Z,12.30
2023-03-05T12:08:00.979Z,12.30
2023-03-05T12:10:27.953Z,12.40
2023-03-05T12:18:29.695Z,12.40
2023-03-05T12:21:36.569Z,12.70
2023-03-05T12:24:27.764Z,12.70
2023-03-05T12:27:04.292Z,12.70
2023-03-05T12:40:08.603Z,12.80
2023-03-05T12:42:35.539Z,12.90
2023-03-05T12:45:19.260Z,12.90
2023-03-05T13:03:48.568Z,13.00
2023-03-05T13:06:35.408Z,13.40
2023-03-05T13:09:07.720Z,13.40
2023-03-05T13:11:39.026Z,13.50
2023-03-05T13:14:43.081Z,13.50
2023-03-05T13:17:29.238Z,13.50
2023-03-05T13:19:57.302Z,13.60
2023-03-05T13:22:24.740Z,13.70
2023-03-05T13:25:17.162Z,13.70
2023-03-05T13:27:43.985Z,13.70
2023-03-05T13:30:28.450Z,13.60
2023-03-05T13:33:00.852Z,13.50
2023-03-05T13:35:27.661Z,13.50
2023-03-05T13:37:54.498Z,13.50
2023-03-05T13:40:31.228Z,13.50
2023-03-05T13:43:12.291Z,13.40
2023-03-05T13:45:40.085Z,13.40
2023-03-05T13:48:07.247Z,13.30
2023-03-05T13:50:38.797Z,13.30
2023-03-05T13:53:22.848Z,13.40
2023-03-05T13:55:52.709Z,13.50
2023-03-05T13:58:49.046Z,13.60
2023-03-05T14:01:24.636Z,13.70
2023-03-05T14:03:53.975Z,13.80
2023-03-05T14:06:22.791Z,13.80
2023-03-05T14:08:54.268Z,13.80
2023-03-05T14:11:21.588Z,13.90
2023-03-05T14:13:49.158Z,13.90
2023-03-05T14:16:26.229Z,14.00
2023-03-05T14:18:57.969Z,14.00
2023-03-05T14:21:25.568Z,14.10
2023-03-05T14:23:54.884Z,14.00
2023-03-05T14:26:30.830Z,14.00
2023-03-05T14:29:12.707Z,14.00
2023-03-05T14:31:47.960Z,14.00
2023-03-05T14:34:42.152Z,14.10
2023-03-05T14:37:22.735Z,14.10
2023-03-05T14:39:52.149Z,14.20
2023-03-05T14:42:27.008Z,14.20
2023-03-05T14:44:55.745Z,14.20
2023-03-05T14:47:25.777Z,14.20
2023-03-05T14:49:52.835Z,14.30
2023-03-05T14:52:22.709Z,14.30
2023-03-05T14:54:49.768Z,14.30
2023-03-05T14:57:28.523Z,14.30
2023-03-05T14:59:55.658Z,14.20
2023-03-05T15:02:25.235Z,14.20
2023-03-05T15:04:52.732Z,14.30
2023-03-05T15:07:31.650Z,14.30
2023-03-05T15:10:00.009Z,14.40
2023-03-05T15:12:27.142Z,14.40
2023-03-05T15:14:55.512Z,14.40
2023-03-05T17:15:34.061Z,14.50
2023-03-05T17:18:01.304Z,14.00
2023-03-05T17:20:28.066Z,14.00
2023-03-05T17:22:54.917Z,13.90
2023-03-05T17:25:21.812Z,13.90
2023-03-05T17:27:48.514Z,13.90
2023-03-05T17:30:15.768Z,13.80
2023-03-05T17:32:43.538Z,13.80
2023-03-05T17:35:19.906Z,13.60
2023-03-05T17:37:46.686Z,13.60
2023-03-05T17:40:14.884Z,13.50
2023-03-05T17:42:41.735Z,13.50
2023-03-05T17:45:09.169Z,13.60
2023-03-05T17:47:36.106Z,13.70
2023-03-05T17:50:04.022Z,13.80
2023-03-05T17:52:31.176Z,13.90
2023-03-05T17:54:59.617Z,14.00
2023-03-05T17:59:53.617Z,14.20
2023-03-05T18:02:20.408Z,14.30
2023-03-05T18:04:47.967Z,14.30
2023-03-05T18:07:14.690Z,14.30
2023-03-05T18:09:41.407Z,14.40
2023-03-05T18:12:08.357Z,14.50
2023-03-05T18:14:35.168Z,14.50
2023-03-05T18:19:32.096Z,14.70
2023-03-05T18:21:58.754Z,14.70
2023-03-05T18:24:25.459Z,14.70
2023-03-05T18:26:52.128Z,14.60
2023-03-05T18:29:18.941Z,14.50
2023-03-05T18:31:45.694Z,14.40
2023-03-05T18:34:12.437Z,14.40
2023-03-05T18:36:39.179Z,14.30
2023-03-05T18:39:06.017Z,14.30
2023-03-05T18:41:32.806Z,14.20
2023-03-05T18:43:59.644Z,14.20
2023-03-05T18:46:29.321Z,14.10
2023-03-05T18:48:57.066Z,14.00
2023-03-05T18:51:24.895Z,13.90
2023-03-05T18:53:54.843Z,13.80
2023-03-05T18:56:22.051Z,13.80
2023-03-05T18:58:48.825Z,13.70
2023-03-05T19:01:17.520Z,13.70
2023-03-05T19:03:44.722Z,13.60
2023-03-05T19:06:11.539Z,13.50
2023-03-05T19:08:38.308Z,13.50
2023-03-05T19:11:17.780Z,13.40
2023-03-05T19:13:50.184Z,13.40
2023-03-05T19:16:23.133Z,13.30
2023-03-05T19:19:13.948Z,13.20
2023-03-05T19:21:42.431Z,13.20
2023-03-05T19:24:11.342Z,13.20
2023-03-05T19:26:39.303Z,13.10
2023-03-05T19:29:07.387Z,13.10
2023-03-05T19:31:34.354Z,13.10
2023-03-05T19:34:01.763Z,13.00
2023-03-05T19:36:28.753Z,13.00
2023-03-05T19:38:55.905Z,13.00
2023-03-05T19:41:22.676Z,12.90
2023-03-05T19:43:50.553Z,12.90
2023-03-05T19:46:17.646Z,12.90
2023-03-05T19:48:44.829Z,12.90
2023-03-05T19:51:14.231Z,12.80
2023-03-05T19:53:42.595Z,12.80
2023-03-05T19:56:09.631Z,12.80
2023-03-05T19:58:37.268Z,12.70
2023-03-05T20:01:12.554Z,12.70
2023-03-05T20:03:39.519Z,12.70
2023-03-05T20:06:07.060Z,12.70
2023-03-05T20:08:33.989Z,12.60
2023-03-05T20:11:01.216Z,12.60
2023-03-05T20:13:28.520Z,12.60
2023-03-05T20:15:55.477Z,12.60
2023-03-05T20:18:22.413Z,12.50
2023-03-05T20:20:53.485Z,12.50
2023-03-05T20:23:21.213Z,12.40
2023-03-05T20:25:52.089Z,12.40
2023-03-05T20:28:25.642Z,12.30
2023-03-05T20:30:57.084Z,12.40
2023-03-05T20:33:24.928Z,12.30
2023-03-05T20:35:53.347Z,12.30
2023-03-05T20:38:22.722Z,12.30
2023-03-05T20:40:52.309Z,12.30
2023-03-05T20:43:19.545Z,12.20
2023-03-05T20:45:46.370Z,12.20
2023-03-05T20:48:13.766Z,12.20
2023-03-05T20:50:41.385Z,12.20
2023-03-05T20:53:09.401Z,12.10
2023-03-05T20:55:36.320Z,12.10
2023-03-05T20:58:03.184Z,12.10
2023-03-05T21:00:31.395Z,12.00
2023-03-05T21:02:58.300Z,12.00
2023-03-05T21:05:27.515Z,12.00
2023-03-05T21:07:55.599Z,12.00
2023-03-05T21:10:23.444Z,11.90
2023-03-05T21:12:52.056Z,11.90
2023-03-05T21:15:22.739Z,12.00
2023-03-05T21:17:50.046Z,12.10
2023-03-05T21:20:20.166Z,12.10
2023-03-05T21:22:47.482Z,12.10
2023-03-05T21:25:21.220Z,11.90
2023-03-05T21:28:09.310Z,11.90
2023-03-05T21:30:40.188Z,11.90
2023-03-05T21:33:09.808Z,11.90
2023-03-05T21:35:37.539Z,11.70
2023-03-05T21:38:06.187Z,11.60
2023-03-05T21:40:34.555Z,11.50
2023-03-05T21:43:01.781Z,11.50
2023-03-05T21:50:25.817Z,11.40
2023-03-05T21:52:53.112Z,11.30
2023-03-05T21:55:22.671Z,11.30
2023-03-05T21:57:49.733Z,11.30
2023-03-05T22:00:22.569Z,11.30
2023-03-05T22:02:49.405Z,11.30
2023-03-05T22:05:16.114Z,11.30
2023-03-05T22:07:43.409Z,11.30
2023-03-05T22:10:13.463Z,11.30
2023-03-05T22:12:56.629Z,11.30
2023-03-05T22:15:23.472Z,11.30
2023-03-05T22:20:17.690Z,11.20
2023-03-05T22:30:09.740Z,11.10
2023-03-05T22:32:36.912Z,10.80
2023-03-05T22:35:06.465Z,10.70
2023-03-05T22:37:33.335Z,10.70
2023-03-05T22:39:59.973Z,10.70
2023-03-05T22:42:26.771Z,10.80
2023-03-05T22:44:57.777Z,10.70
2023-03-05T22:47:25.584Z,10.80
2023-03-05T22:49:52.695Z,10.70
2023-03-05T22:52:19.806Z,10.80
2023-03-05T22:54:46.572Z,10.70
2023-03-05T22:57:13.297Z,10.70
2023-03-05T22:59:40.048Z,10.70
